Tuesday, January 23, 2018, 6:25 AM CST
Back to Local

KSLN, Salina Municipal Airport

Location: Salina, KS, United States Lat: 38.783
Local Time: 6:25 AM CST (12:25 GMT) Lon: -97.65
Time Zone: US/Central Elev: 1272 ft

Show me the last for .
Show Decoded

2018-01-23 05:53 METAR KSLN 231153Z AUTO 29007KT 10SM CLR M04/M07 A3014 RMK AO2 SLP217 70003
                 T10441067 11006 21044 53019 =
2018-01-23 04:53 METAR KSLN 231053Z AUTO 31008KT 10SM CLR M03/M06 A3012 RMK AO2 SLP210 T10331061
                 =
2018-01-23 03:53 METAR KSLN 230953Z AUTO 31013KT 10SM CLR M03/M06 A3009 RMK AO2 SLP199 T10281056
                 =
2018-01-23 02:53 METAR KSLN 230853Z AUTO 31011KT 10SM CLR M02/M06 A3008 RMK AO2 SLP196 T10221056
                 53021 =
2018-01-23 01:53 METAR KSLN 230753Z AUTO 30014KT 10SM CLR M02/M05 A3005 RMK AO2 SLP188 T10171050
                 =
2018-01-23 00:53 METAR KSLN 230653Z AUTO 30014KT 10SM CLR M01/M05 A3003 RMK AO2 SLP179 T10111050
                 =
2018-01-22 23:53 METAR KSLN 230553Z AUTO 31016KT 10SM CLR M01/M04 A3001 RMK AO2 SLP173 T10061044
                 10033 21006 400331006 51022 =
2018-01-22 22:53 METAR KSLN 230453Z 32016KT 10SM CLR 01/M04 A2999 RMK AO2 SLP163 T00061044 =
2018-01-22 21:53 METAR KSLN 230353Z 30017G25KT 10SM CLR 01/M04 A2997 RMK AO2 PK WND 30028/0255
                 SLP158 T00111039 =
2018-01-22 20:53 METAR KSLN 230253Z 30019KT 10SM CLR 02/M03 A2994 RMK AO2 PK WND 30027/0237
                 SLP149 T00171033 51034 =
2018-01-22 19:53 METAR KSLN 230153Z 30018KT 10SM FEW070 02/M03 A2992 RMK AO2 PK WND 32028/0057
                 SLP139 T00171028 =
2018-01-22 18:53 METAR KSLN 230053Z 31023G32KT 10SM OVC036 03/M02 A2988 RMK AO2 PK WND 31032/0040
                 SLP124 T00281022 =
2018-01-22 17:53 METAR KSLN 222353Z 32023G31KT 10SM OVC031 03/M02 A2984 RMK AO2 PK WND 31037/2316
                 SLP112 60001 T00331017 10033 20011 51049 =
2018-01-22 16:53 METAR KSLN 222253Z 32019G35KT 10SM OVC030 03/M01 A2980 RMK AO2 PK WND 33041/2243
                 SLP096 T00331011 =
2018-01-22 15:53 METAR KSLN 222153Z 32027G37KT 10SM FEW025 OVC033 03/M01 A2974 RMK AO2 PK WND
                 31041/2141 SNE02 SLP079 P0000 T00281006 =
2018-01-22 14:53 METAR KSLN 222053Z 31028G33KT 4SM -SN BR SCT017 OVC034 02/01 A2969 RMK AO2 PK
                 WND 32043/2016 SLP062 P0000 60001 T00220006 53011 =
2018-01-22 13:53 METAR KSLN 221953Z 31029G36KT 3SM -SN BR BKN015 OVC021 02/00 A2966 RMK AO2 PK
                 WND 32037/1939 SLP053 P0000 T00170000 =
2018-01-22 13:50 METAR KSLN 221950Z 31029G36KT 2 1/2SM -SN BR BKN015 OVC021 02/00 A2966 RMK AO2
                 PK WND 32037/1939 P0000 =
2018-01-22 13:42 METAR KSLN 221942Z 31026G37KT 3SM -SN BR BKN017 BKN023 OVC027 02/00 A2966 RMK
                 AO2 PK WND 32037/1939 P0000 T00170000 =
2018-01-22 13:34 METAR KSLN 221934Z 31025G36KT 2 1/2SM -SN BR BKN017 BKN023 OVC029 02/00 A2966
                 RMK AO2 PK WND 31036/1904 P0000 T00170000 =
2018-01-22 13:12 METAR KSLN 221912Z 31028G36KT 3SM -SN BR FEW009 BKN016 OVC026 01/M01 A2966 RMK
                 AO2 PK WND 31036/1904 P0000 T00111006 =
2018-01-22 13:03 METAR KSLN 221903Z 31024G32KT 1SM -SN BR SCT009 BKN016 OVC024 01/00 A2966 RMK
                 AO2 PK WND 31032/1903 P0000 T00110000 =
2018-01-22 12:53 METAR KSLN 221853Z 31025KT 3/4SM -SN BR FEW009 BKN014 OVC024 01/00 A2966 RMK AO2
                 PK WND 32035/1826 SLP050 P0001 T00110000 =
2018-01-22 12:42 METAR KSLN 221842Z 31024G32KT 1/2SM SN FG FEW009 BKN014 OVC021 01/00 A2965 RMK
                 AO2 PK WND 32035/1826 P0001 T00110000 =
2018-01-22 12:33 METAR KSLN 221833Z 31027G35KT 1 3/4SM -SN BR SCT014 BKN022 OVC029 01/M01 A2965
                 RMK AO2 PK WND 32035/1826 P0000 T00111006 =
2018-01-22 12:22 METAR KSLN 221822Z 31024G31KT 3SM -SN BR SCT014 BKN022 OVC030 01/00 A2966 RMK
                 AO2 PK WND 32034/1803 P0000 T00110000 =
2018-01-22 12:12 METAR KSLN 221812Z 31021G34KT 1 3/4SM -SN BR FEW015 SCT021 OVC028 02/00 A2965
                 RMK AO2 PK WND 32034/1803 P0000 T00170000 =
2018-01-22 11:53 METAR KSLN 221753Z 32026G34KT 4SM -SN BR BKN026 OVC030 02/M01 A2965 RMK AO2 PK
                 WND 32035/1655 SNB49 SLP047 P0000 60002 T00171006 10033 20011 51029 =
2018-01-22 10:53 METAR KSLN 221653Z 32023G31KT 10SM OVC020 02/M01 A2963 RMK AO2 PK WND 33034/1624
                 SLP039 T00221006 =
2018-01-22 09:53 METAR KSLN 221553Z 32022G32KT 10SM OVC018 02/00 A2959 RMK AO2 PK WND 32033/1541
                 SNE38 SLP026 P0000 T00170000 =
2018-01-22 09:13 METAR KSLN 221513Z 31018KT 5SM -SN BR SCT008 OVC015 01/01 A2957 RMK AO2 PK WND
                 32026/1454 P0000 T00110006 =
2018-01-22 09:10 METAR KSLN 221510Z 31016KT 2SM -SN BR BKN008 OVC015 01/01 A2957 RMK AO2 PK WND
                 32026/1454 P0000 T00110006 =
2018-01-22 08:57 METAR KSLN 221457Z 32016G27KT 1/2SM SN FG BKN008 OVC014 01/01 A2956 RMK AO2 PK
                 WND 32026/1454 P0000 T00110006 =
2018-01-22 08:53 METAR KSLN 221453Z 31019G27KT 1SM -SN BR OVC010 01/01 A2956 RMK AO2 PK WND
                 32027/1453 SLP016 P0002 60002 T00110006 53025 =
2018-01-22 08:41 METAR KSLN 221441Z 32020KT 1 3/4SM -SN BR BKN010 OVC015 01/01 A2955 RMK AO2 PK
                 WND 31026/1431 CIG 005V013 P0001 T00110006 =
2018-01-22 08:23 METAR KSLN 221423Z 31014KT 1 1/4SM -SN BR OVC009 01/01 A2954 RMK AO2 CIG 005V012
                 P0001 T00110006 =
2018-01-22 08:09 METAR KSLN 221409Z 31017KT 2 1/2SM -SN BR OVC009 01/01 A2953 RMK AO2 CIG 007V011
                 P0000 T00110006 =
2018-01-22 07:53 METAR KSLN 221353Z 32016KT 8SM -SN OVC010 02/01 A2952 RMK AO2 PK WND 34026/1311
                 UPB01E03SNE01B28 SLP001 P0000 T00220011 =
2018-01-22 07:31 METAR KSLN 221331Z 34018KT 9SM -SN OVC010 02/01 A2950 RMK AO2 PK WND 34026/1311
                 UPB01E03SNE01B28 P0000 T00220011 =
2018-01-22 06:53 METAR KSLN 221253Z 33020G27KT 3SM -SN BR OVC005 02/02 A2948 RMK AO2 PK WND
                 33028/1239 RAB35E36SNB34 CIG 002V010 SLP989 P0000 T00220017 =
2018-01-22 06:49 METAR KSLN 221249Z AUTO 34021KT 2 1/2SM -SN BR OVC005 03/02 A2948 RMK AO2 PK WND
                 33028/1239 RAB35E36SNB34 CIG 002V008 P0000 =
2018-01-22 06:33 METAR KSLN 221233Z AUTO 32015KT 2 1/2SM BR OVC003 03/03 A2947 RMK AO2 T00330028
                 =

Support USWX by starting your Amazon purchase here.